Time;durP1;ratioP1;P1;durP2;ratioP2;P2;SDS_P1;SDS_P2;PMS_P1;PMS_P2;Temp;Humidity;BMP_temperature;BMP_pressure;BME280_temperature;BME280_humidity;BME280_pressure;Samples;Min_cycle;Max_cycle;Signal;HPM_P1;HPM_P2
2022/05/07 00:00:07;;;;;;;;;;;;;;;;;;5071812;28;825;-63
2022/05/07 00:02:32;;;;;;;;;;;;;;;;;;5072160;28;983;-63
2022/05/07 00:04:57;;;;;;;;;;;;;;;;;;5071973;28;817;-63
2022/05/07 00:07:23;;;;;;;;;;;;;;;;;;5071653;28;1007;-63
2022/05/07 00:09:48;;;;;;;;;;;;;;;;;;5072029;28;1953;-63
2022/05/07 00:12:13;;;;;;;;;;;;;;;;;;5072119;28;1104;-63
2022/05/07 00:14:38;;;;;;;;;;;;;;;;;;5071516;28;899;-63
2022/05/07 00:19:48;;;;;;;;;;;;;;;;;;5072613;28;613;-64
2022/05/07 00:22:13;;;;;;;;;;;;;;;;;;5072725;28;828;-64
2022/05/07 00:24:38;;;;;;;;;;;;;;;;;;5071998;28;911;-64
2022/05/07 00:27:04;;;;;;;;;;;;;;;;;;5072385;28;888;-64
2022/05/07 00:29:29;;;;;;;;;;;;;;;;;;5071462;28;1906;-64
2022/05/07 00:31:54;;;;;;;;;;;;;;;;;;5072040;28;931;-64
2022/05/07 00:34:21;;;;;;;;;;;;;;;;;;5071792;28;935;-64
2022/05/07 00:36:46;;;;;;;;;;;;;;;;;;5072143;28;896;-64
2022/05/07 00:39:11;;;;;;;;;;;;;;;;;;5071641;28;895;-64
2022/05/07 00:41:40;;;;;;;;;;;;;;;;;;5074159;28;903;-64
2022/05/07 00:44:05;;;;;;;;;;;;;;;;;;5076388;28;868;-64
2022/05/07 00:46:30;;;;;;;;;;;;;;;;;;5075185;28;904;-63
2022/05/07 00:48:57;;;;;;;;;;;;;;;;;;5075943;28;1904;-64
2022/05/07 00:51:34;;;;;;;;;;;;;;;;;;5075393;28;840;-63
2022/05/07 00:54:03;;;;;;;;;;;;;;;;;;5074827;28;824;-64
2022/05/07 00:56:29;;;;;;;;;;;;;;;;;;5074517;28;833;-64
2022/05/07 00:58:54;;;;;;;;;;;;;;;;;;5074622;28;877;-64
2022/05/07 01:01:20;;;;;;;;;;;;;;;;;;5074792;28;837;-64
2022/05/07 01:03:46;;;;;;;;;;;;;;;;;;5056429;28;1351;-64
2022/05/07 01:06:11;;;;;;;;;;;;;;;;;;5074388;28;931;-64
2022/05/07 01:08:37;;;;;;;;;;;;;;;;;;5073678;28;1952;-64
2022/05/07 01:11:02;;;;;;;;;;;;;;;;;;5074066;28;1198;-64
2022/05/07 01:13:27;;;;;;;;;;;;;;;;;;5072361;28;1328;-64
2022/05/07 01:15:56;;;;;;;;;;;;;;;;;;5074591;28;1065;-64
2022/05/07 01:18:23;;;;;;;;;;;;;;;;;;5074278;28;845;-64
2022/05/07 01:20:48;;;;;;;;;;;;;;;;;;5072967;28;1171;-64
2022/05/07 01:23:14;;;;;;;;;;;;;;;;;;5074389;28;848;-64
2022/05/07 01:25:39;;;;;;;;;;;;;;;;;;5073860;28;879;-64
2022/05/07 01:28:05;;;;;;;;;;;;;;;;;;5073918;28;1902;-64
2022/05/07 01:30:30;;;;;;;;;;;;;;;;;;5074028;28;1061;-64
2022/05/07 01:32:55;;;;;;;;;;;;;;;;;;5073994;28;958;-64
2022/05/07 01:35:21;;;;;;;;;;;;;;;;;;5074209;28;911;-64
2022/05/07 01:37:46;;;;;;;;;;;;;;;;;;5073813;28;829;-64
2022/05/07 01:40:11;;;;;;;;;;;;;;;;;;5073515;28;852;-64
2022/05/07 01:42:37;;;;;;;;;;;;;;;;;;5072162;28;1396;-64
2022/05/07 01:45:03;;;;;;;;;;;;;;;;;;5074043;28;821;-64
2022/05/07 01:50:11;;;;;;;;;;;;;;;;;;5074201;28;686;-64
2022/05/07 01:52:37;;;;;;;;;;;;;;;;;;5072592;28;939;-64
2022/05/07 01:55:02;;;;;;;;;;;;;;;;;;5073580;28;908;-64
2022/05/07 01:57:28;;;;;;;;;;;;;;;;;;5073478;28;758;-64
2022/05/07 01:59:53;;;;;;;;;;;;;;;;;;5072854;28;904;-64
2022/05/07 02:02:18;;;;;;;;;;;;;;;;;;5073480;28;896;-64
2022/05/07 02:04:44;;;;;;;;;;;;;;;;;;5072910;28;955;-64
2022/05/07 02:07:09;;;;;;;;;;;;;;;;;;5073629;28;957;-64
2022/05/07 02:09:35;;;;;;;;;;;;;;;;;;5071908;28;1964;-64
2022/05/07 02:12:00;;;;;;;;;;;;;;;;;;5072376;28;1299;-64
2022/05/07 02:14:26;;;;;;;;;;;;;;;;;;5073324;28;1034;-64
2022/05/07 02:16:51;;;;;;;;;;;;;;;;;;5073431;28;939;-64
2022/05/07 02:19:16;;;;;;;;;;;;;;;;;;5072210;28;963;-64
2022/05/07 02:21:41;;;;;;;;;;;;;;;;;;5073369;28;892;-65
2022/05/07 02:24:07;;;;;;;;;;;;;;;;;;5073166;28;924;-64
2022/05/07 02:26:32;;;;;;;;;;;;;;;;;;5072916;28;781;-64
2022/05/07 02:28:57;;;;;;;;;;;;;;;;;;5073510;28;1914;-64
2022/05/07 02:31:22;;;;;;;;;;;;;;;;;;5073565;28;880;-64
2022/05/07 02:33:48;;;;;;;;;;;;;;;;;;5071466;28;1011;-64
2022/05/07 02:36:13;;;;;;;;;;;;;;;;;;5072866;28;828;-64
2022/05/07 02:38:39;;;;;;;;;;;;;;;;;;5072460;28;825;-64
2022/05/07 02:43:48;;;;;;;;;;;;;;;;;;5073008;28;635;-64
2022/05/07 02:46:14;;;;;;;;;;;;;;;;;;5072619;28;1078;-64
2022/05/07 02:48:40;;;;;;;;;;;;;;;;;;5071882;28;1898;-64
2022/05/07 02:51:05;;;;;;;;;;;;;;;;;;5071488;28;782;-64
2022/05/07 02:53:30;;;;;;;;;;;;;;;;;;5072127;28;884;-64
2022/05/07 02:55:55;;;;;;;;;;;;;;;;;;5072223;28;884;-64
2022/05/07 02:58:21;;;;;;;;;;;;;;;;;;5072259;28;896;-63
2022/05/07 03:00:48;;;;;;;;;;;;;;;;;;5070747;28;1005;-64
2022/05/07 03:03:14;;;;;;;;;;;;;;;;;;5054503;28;1393;-64
2022/05/07 03:05:39;;;;;;;;;;;;;;;;;;5071501;28;983;-64
2022/05/07 03:08:05;;;;;;;;;;;;;;;;;;5072047;28;1972;-64
2022/05/07 03:10:31;;;;;;;;;;;;;;;;;;5071512;28;1251;-64
2022/05/07 03:12:56;;;;;;;;;;;;;;;;;;5071359;28;1048;-64
2022/05/07 03:15:21;;;;;;;;;;;;;;;;;;5053887;28;1310;-63
2022/05/07 03:17:46;;;;;;;;;;;;;;;;;;5071739;28;920;-64
2022/05/07 03:20:16;;;;;;;;;;;;;;;;;;5070355;28;1155;-64
2022/05/07 03:22:41;;;;;;;;;;;;;;;;;;5070196;28;904;-64
2022/05/07 03:25:07;;;;;;;;;;;;;;;;;;5071918;28;812;-63
2022/05/07 03:27:32;;;;;;;;;;;;;;;;;;5071947;28;848;-64
2022/05/07 03:29:57;;;;;;;;;;;;;;;;;;5071687;28;1901;-64
2022/05/07 03:32:22;;;;;;;;;;;;;;;;;;5071564;28;829;-64
2022/05/07 03:34:48;;;;;;;;;;;;;;;;;;5070792;28;770;-63
2022/05/07 03:37:14;;;;;;;;;;;;;;;;;;5071527;28;920;-64
2022/05/07 03:39:41;;;;;;;;;;;;;;;;;;5071086;28;852;-64
2022/05/07 03:42:06;;;;;;;;;;;;;;;;;;5071200;28;828;-64
2022/05/07 03:44:31;;;;;;;;;;;;;;;;;;5069552;28;1175;-64
2022/05/07 03:46:56;;;;;;;;;;;;;;;;;;5069627;28;1335;-64
2022/05/07 03:49:22;;;;;;;;;;;;;;;;;;5071481;28;1894;-64
2022/05/07 03:54:31;;;;;;;;;;;;;;;;;;5071579;28;663;-63
2022/05/07 03:56:56;;;;;;;;;;;;;;;;;;5071315;28;924;-64
2022/05/07 03:59:22;;;;;;;;;;;;;;;;;;5071618;28;990;-64
2022/05/07 04:01:47;;;;;;;;;;;;;;;;;;5071561;28;878;-64
2022/05/07 04:04:12;;;;;;;;;;;;;;;;;;5070064;28;1143;-64
2022/05/07 04:06:37;;;;;;;;;;;;;;;;;;5071691;28;978;-64
2022/05/07 04:09:03;;;;;;;;;;;;;;;;;;5071132;28;1890;-64
2022/05/07 04:11:28;;;;;;;;;;;;;;;;;;5071724;28;1069;-64
2022/05/07 04:13:53;;;;;;;;;;;;;;;;;;5071382;28;931;-64
2022/05/07 04:16:18;;;;;;;;;;;;;;;;;;5069378;28;856;-64
2022/05/07 04:18:44;;;;;;;;;;;;;;;;;;5070895;28;832;-63
2022/05/07 04:21:09;;;;;;;;;;;;;;;;;;5053428;28;1156;-63
2022/05/07 04:23:34;;;;;;;;;;;;;;;;;;5069848;28;813;-64
2022/05/07 04:26:00;;;;;;;;;;;;;;;;;;5070673;28;872;-64
2022/05/07 04:28:25;;;;;;;;;;;;;;;;;;5069606;28;2012;-64
2022/05/07 04:30:50;;;;;;;;;;;;;;;;;;5070928;28;816;-63
2022/05/07 04:33:16;;;;;;;;;;;;;;;;;;5070937;28;943;-64
2022/05/07 04:35:41;;;;;;;;;;;;;;;;;;5070705;28;832;-64
2022/05/07 04:38:07;;;;;;;;;;;;;;;;;;5070573;28;829;-64
2022/05/07 04:40:32;;;;;;;;;;;;;;;;;;5070844;28;880;-64
2022/05/07 04:42:57;;;;;;;;;;;;;;;;;;5069313;28;1274;-64
2022/05/07 04:45:22;;;;;;;;;;;;;;;;;;5071072;28;959;-64
2022/05/07 04:47:48;;;;;;;;;;;;;;;;;;5070169;28;1967;-63
2022/05/07 04:50:13;;;;;;;;;;;;;;;;;;5069019;28;919;-64
2022/05/07 04:52:39;;;;;;;;;;;;;;;;;;5070855;28;837;-64
2022/05/07 04:55:04;;;;;;;;;;;;;;;;;;5070243;28;912;-64
2022/05/07 04:57:30;;;;;;;;;;;;;;;;;;5070620;28;790;-64
2022/05/07 04:59:55;;;;;;;;;;;;;;;;;;5070501;28;907;-64
2022/05/07 05:02:21;;;;;;;;;;;;;;;;;;5070657;28;774;-64
2022/05/07 05:04:46;;;;;;;;;;;;;;;;;;5070176;28;872;-64
2022/05/07 05:07:11;;;;;;;;;;;;;;;;;;5068899;28;944;-64
2022/05/07 05:09:36;;;;;;;;;;;;;;;;;;5071053;28;1963;-63
2022/05/07 05:12:02;;;;;;;;;;;;;;;;;;5070200;28;1084;-63
2022/05/07 05:17:11;;;;;;;;;;;;;;;;;;5070618;28;675;-64
2022/05/07 05:19:36;;;;;;;;;;;;;;;;;;5070188;28;872;-64
2022/05/07 05:22:02;;;;;;;;;;;;;;;;;;5069592;28;1435;-64
2022/05/07 05:24:27;;;;;;;;;;;;;;;;;;5069005;28;1833;-64
2022/05/07 05:26:53;;;;;;;;;;;;;;;;;;5070727;28;873;-63
2022/05/07 05:29:18;;;;;;;;;;;;;;;;;;5072782;28;1905;-64
2022/05/07 05:31:44;;;;;;;;;;;;;;;;;;5074960;28;790;-64
2022/05/07 05:34:09;;;;;;;;;;;;;;;;;;5074229;28;1003;-64
2022/05/07 05:36:34;;;;;;;;;;;;;;;;;;5072361;28;1191;-64
2022/05/07 05:39:00;;;;;;;;;;;;;;;;;;5074148;28;923;-64
2022/05/07 05:41:25;;;;;;;;;;;;;;;;;;5074316;28;841;-64
2022/05/07 05:43:50;;;;;;;;;;;;;;;;;;5074437;28;786;-64
2022/05/07 05:46:16;;;;;;;;;;;;;;;;;;5074231;28;1027;-64
2022/05/07 05:48:41;;;;;;;;;;;;;;;;;;5073938;28;1901;-64
2022/05/07 05:51:07;;;;;;;;;;;;;;;;;;5072576;28;1172;-64
2022/05/07 05:53:32;;;;;;;;;;;;;;;;;;5073771;28;828;-64
2022/05/07 05:55:59;;;;;;;;;;;;;;;;;;5073961;28;867;-64
2022/05/07 05:58:24;;;;;;;;;;;;;;;;;;5073958;28;782;-64
2022/05/07 06:00:52;;;;;;;;;;;;;;;;;;5072589;28;834;-64
2022/05/07 06:03:18;;;;;;;;;;;;;;;;;;5071834;28;1215;-64
2022/05/07 06:05:43;;;;;;;;;;;;;;;;;;5073556;28;1061;-64
2022/05/07 06:08:08;;;;;;;;;;;;;;;;;;5072833;28;1961;-64
2022/05/07 06:10:33;;;;;;;;;;;;;;;;;;5073465;28;860;-64
2022/05/07 06:12:59;;;;;;;;;;;;;;;;;;5071744;28;1209;-64
2022/05/07 06:15:24;;;;;;;;;;;;;;;;;;5073802;28;852;-64
2022/05/07 06:17:50;;;;;;;;;;;;;;;;;;5055694;28;2257;-64
2022/05/07 06:20:15;;;;;;;;;;;;;;;;;;5073477;28;884;-64
2022/05/07 06:22:40;;;;;;;;;;;;;;;;;;5073374;28;848;-64
2022/05/07 06:27:49;;;;;;;;;;;;;;;;;;5071782;28;1092;-64
2022/05/07 06:30:14;;;;;;;;;;;;;;;;;;5071543;28;1967;-64
2022/05/07 06:32:42;;;;;;;;;;;;;;;;;;5072901;28;904;-64
2022/05/07 06:35:08;;;;;;;;;;;;;;;;;;5073012;28;982;-64
2022/05/07 06:37:34;;;;;;;;;;;;;;;;;;5072366;28;907;-64
2022/05/07 06:40:00;;;;;;;;;;;;;;;;;;5072545;28;1007;-64
2022/05/07 06:42:25;;;;;;;;;;;;;;;;;;5072826;28;883;-64
2022/05/07 06:44:51;;;;;;;;;;;;;;;;;;5073535;28;861;-64
2022/05/07 06:47:16;;;;;;;;;;;;;;;;;;5073879;28;939;-63
2022/05/07 06:49:43;;;;;;;;;;;;;;;;;;5073905;28;1898;-64
2022/05/07 06:52:08;;;;;;;;;;;;;;;;;;5073674;28;825;-64
2022/05/07 06:54:33;;;;;;;;;;;;;;;;;;5073441;28;841;-64
2022/05/07 06:56:59;;;;;;;;;;;;;;;;;;5072018;28;853;-64
2022/05/07 06:59:24;;;;;;;;;;;;;;;;;;5072662;28;946;-64
2022/05/07 07:01:49;;;;;;;;;;;;;;;;;;5055674;28;1264;-64
2022/05/07 07:04:15;;;;;;;;;;;;;;;;;;5074019;28;825;-63
2022/05/07 07:06:40;;;;;;;;;;;;;;;;;;5073706;28;912;-64
2022/05/07 07:09:05;;;;;;;;;;;;;;;;;;5073416;28;1898;-64
2022/05/07 07:11:31;;;;;;;;;;;;;;;;;;5072401;28;1242;-64
2022/05/07 07:13:56;;;;;;;;;;;;;;;;;;5073691;28;837;-64
2022/05/07 07:16:22;;;;;;;;;;;;;;;;;;5072591;28;1214;-64
2022/05/07 07:18:47;;;;;;;;;;;;;;;;;;5073788;28;891;-64
2022/05/07 07:21:12;;;;;;;;;;;;;;;;;;5072313;28;852;-64
2022/05/07 07:23:38;;;;;;;;;;;;;;;;;;5072643;28;912;-64
2022/05/07 07:26:04;;;;;;;;;;;;;;;;;;5073092;28;911;-64
2022/05/07 07:28:30;;;;;;;;;;;;;;;;;;5072320;28;1910;-64
2022/05/07 07:30:55;;;;;;;;;;;;;;;;;;5072762;28;976;-64
2022/05/07 07:33:20;;;;;;;;;;;;;;;;;;5071436;28;888;-64
2022/05/07 07:35:46;;;;;;;;;;;;;;;;;;5072778;28;900;-65
2022/05/07 07:38:11;;;;;;;;;;;;;;;;;;5072100;28;903;-64
2022/05/07 07:40:36;;;;;;;;;;;;;;;;;;5071654;28;836;-64
2022/05/07 07:43:02;;;;;;;;;;;;;;;;;;5072170;28;765;-64
2022/05/07 07:48:12;;;;;;;;;;;;;;;;;;5071435;28;1902;-64
2022/05/07 07:50:38;;;;;;;;;;;;;;;;;;5071185;28;857;-64
2022/05/07 07:53:07;;;;;;;;;;;;;;;;;;5072119;28;833;-64
2022/05/07 07:55:34;;;;;;;;;;;;;;;;;;5071367;28;899;-64
2022/05/07 07:58:00;;;;;;;;;;;;;;;;;;5071881;28;1020;-65
2022/05/07 08:00:27;;;;;;;;;;;;;;;;;;5071245;28;883;-64
2022/05/07 08:02:53;;;;;;;;;;;;;;;;;;5071636;28;840;-64
2022/05/07 08:05:22;;;;;;;;;;;;;;;;;;5071503;28;778;-64
2022/05/07 08:13:16;;;;;;;;;;;;;;;;;;5070283;28;1106;-64
2022/05/07 08:15:42;;;;;;;;;;;;;;;;;;5071172;28;900;-64
2022/05/07 08:18:07;;;;;;;;;;;;;;;;;;5071208;28;991;-64
2022/05/07 08:20:32;;;;;;;;;;;;;;;;;;5071006;28;851;-64
2022/05/07 08:22:57;;;;;;;;;;;;;;;;;;5071271;28;892;-64
2022/05/07 08:25:23;;;;;;;;;;;;;;;;;;5071527;28;933;-64
2022/05/07 08:27:48;;;;;;;;;;;;;;;;;;5071348;28;1022;-64
2022/05/07 08:30:13;;;;;;;;;;;;;;;;;;5070087;28;1975;-64
2022/05/07 08:32:38;;;;;;;;;;;;;;;;;;5070883;28;1199;-64
2022/05/07 08:35:04;;;;;;;;;;;;;;;;;;5071193;28;875;-64
2022/05/07 08:37:29;;;;;;;;;;;;;;;;;;5070873;28;1061;-64
2022/05/07 08:40:01;;;;;;;;;;;;;;;;;;5071311;28;836;-64
2022/05/07 08:42:27;;;;;;;;;;;;;;;;;;5069641;28;924;-63
2022/05/07 08:44:53;;;;;;;;;;;;;;;;;;5071221;28;829;-63
2022/05/07 08:47:19;;;;;;;;;;;;;;;;;;5070795;28;896;-63
2022/05/07 08:49:44;;;;;;;;;;;;;;;;;;5071408;28;1901;-63
2022/05/07 08:52:10;;;;;;;;;;;;;;;;;;5071233;28;1183;-63
2022/05/07 08:54:36;;;;;;;;;;;;;;;;;;5071096;28;774;-63
2022/05/07 08:57:01;;;;;;;;;;;;;;;;;;5052597;28;1343;-63
2022/05/07 08:59:27;;;;;;;;;;;;;;;;;;5070805;28;912;-63
2022/05/07 09:01:53;;;;;;;;;;;;;;;;;;5071056;28;1222;-64
2022/05/07 09:04:18;;;;;;;;;;;;;;;;;;5074649;28;901;-64
2022/05/07 09:06:53;;;;;;;;;;;;;;;;;;5073548;28;1731;-64
2022/05/07 09:09:18;;;;;;;;;;;;;;;;;;5075289;28;1918;-64
2022/05/07 09:11:44;;;;;;;;;;;;;;;;;;5073383;28;1359;-64
2022/05/07 09:14:10;;;;;;;;;;;;;;;;;;5073779;28;1147;-65
2022/05/07 09:16:39;;;;;;;;;;;;;;;;;;5074857;28;907;-64
2022/05/07 09:19:05;;;;;;;;;;;;;;;;;;5074892;28;919;-64
2022/05/07 09:21:32;;;;;;;;;;;;;;;;;;5074393;28;828;-64
2022/05/07 09:24:02;;;;;;;;;;;;;;;;;;5075039;28;868;-64
2022/05/07 09:26:39;;;;;;;;;;;;;;;;;;5074364;28;896;-62
2022/05/07 09:29:06;;;;;;;;;;;;;;;;;;5074713;28;1917;-63
2022/05/07 09:31:32;;;;;;;;;;;;;;;;;;5073335;28;848;-62
2022/05/07 09:35:47;;;;;;;;;;;;;;;;;;5074154;28;879;-64
2022/05/07 09:36:44;;;;;;;;;;;;;;;;;;5072310;28;859;-63
2022/05/07 09:39:14;;;;;;;;;;;;;;;;;;5073969;28;987;-63
2022/05/07 09:41:43;;;;;;;;;;;;;;;;;;5073404;28;833;-64
2022/05/07 09:44:09;;;;;;;;;;;;;;;;;;5074361;28;837;-64
2022/05/07 09:46:34;;;;;;;;;;;;;;;;;;5073410;28;758;-64
2022/05/07 09:49:01;;;;;;;;;;;;;;;;;;5073551;28;1965;-64
2022/05/07 09:51:27;;;;;;;;;;;;;;;;;;5071790;28;1211;-64
2022/05/07 09:59:37;;;;;;;;;;;;;;;;;;5050656;28;1277;-63
2022/05/07 10:02:14;;;;;;;;;;;;;;;;;;5063719;28;1105;-63
2022/05/07 10:04:58;;;;;;;;;;;;;;;;;;5073231;28;833;-63
2022/05/07 10:07:36;;;;;;;;;;;;;;;;;;5073098;28;924;-63
2022/05/07 10:10:20;;;;;;;;;;;;;;;;;;5071853;28;1901;-64
2022/05/07 10:12:46;;;;;;;;;;;;;;;;;;5072254;28;1315;-63
2022/05/07 10:15:14;;;;;;;;;;;;;;;;;;5073255;28;899;-63
2022/05/07 10:17:39;;;;;;;;;;;;;;;;;;5071279;28;1340;-63
2022/05/07 10:20:09;;;;;;;;;;;;;;;;;;5073260;28;883;-64
2022/05/07 10:22:35;;;;;;;;;;;;;;;;;;5071039;28;1229;-63
2022/05/07 10:25:07;;;;;;;;;;;;;;;;;;5073201;28;825;-63
2022/05/07 10:27:33;;;;;;;;;;;;;;;;;;5072516;28;907;-63
2022/05/07 10:30:02;;;;;;;;;;;;;;;;;;5073152;28;2004;-64
2022/05/07 10:32:28;;;;;;;;;;;;;;;;;;5072711;28;970;-63
2022/05/07 10:34:53;;;;;;;;;;;;;;;;;;5073130;28;903;-63
2022/05/07 10:37:19;;;;;;;;;;;;;;;;;;5073448;28;852;-62
2022/05/07 10:39:53;;;;;;;;;;;;;;;;;;5071469;28;876;-63
2022/05/07 10:42:21;;;;;;;;;;;;;;;;;;5073313;28;832;-63
2022/05/07 10:44:46;;;;;;;;;;;;;;;;;;5072849;28;1192;-63
2022/05/07 10:47:12;;;;;;;;;;;;;;;;;;5073342;28;880;-64
2022/05/07 10:49:54;;;;;;;;;;;;;;;;;;5071309;28;1914;-63
2022/05/07 10:52:30;;;;;;;;;;;;;;;;;;5072964;28;976;-63
2022/05/07 10:55:04;;;;;;;;;;;;;;;;;;5072793;28;844;-64
2022/05/07 10:57:46;;;;;;;;;;;;;;;;;;5072879;28;913;-64
2022/05/07 11:00:21;;;;;;;;;;;;;;;;;;5071284;28;1269;-64
2022/05/07 11:02:48;;;;;;;;;;;;;;;;;;5070562;28;1479;-64
2022/05/07 11:05:15;;;;;;;;;;;;;;;;;;5070396;28;1514;-64
2022/05/07 11:07:40;;;;;;;;;;;;;;;;;;5071722;28;897;-64
2022/05/07 11:10:06;;;;;;;;;;;;;;;;;;5071372;28;1972;-64
2022/05/07 11:12:32;;;;;;;;;;;;;;;;;;5071951;28;1296;-64
2022/05/07 11:14:57;;;;;;;;;;;;;;;;;;5070376;28;1186;-64
2022/05/07 11:17:33;;;;;;;;;;;;;;;;;;5072709;28;1251;-64
2022/05/07 11:19:59;;;;;;;;;;;;;;;;;;5072489;28;787;-63
2022/05/07 11:22:29;;;;;;;;;;;;;;;;;;5072494;28;812;-64
2022/05/07 11:24:56;;;;;;;;;;;;;;;;;;5069778;28;1665;-63
2022/05/07 11:27:21;;;;;;;;;;;;;;;;;;5072343;28;957;-63
2022/05/07 11:29:47;;;;;;;;;;;;;;;;;;5071640;28;1979;-64
2022/05/07 11:32:12;;;;;;;;;;;;;;;;;;5072020;28;975;-63
2022/05/07 11:34:39;;;;;;;;;;;;;;;;;;5071752;28;888;-63
2022/05/07 11:37:11;;;;;;;;;;;;;;;;;;5070336;28;1257;-63
2022/05/07 11:39:46;;;;;;;;;;;;;;;;;;5071680;28;907;-64
2022/05/07 11:42:11;;;;;;;;;;;;;;;;;;5071945;28;955;-63
2022/05/07 11:47:22;;;;;;;;;;;;;;;;;;5072395;28;727;-64
2022/05/07 11:49:57;;;;;;;;;;;;;;;;;;5071545;28;1902;-64
2022/05/07 11:52:26;;;;;;;;;;;;;;;;;;5072248;28;912;-63
2022/05/07 11:54:51;;;;;;;;;;;;;;;;;;5071545;28;872;-63
2022/05/07 11:57:29;;;;;;;;;;;;;;;;;;5071880;28;961;-63
2022/05/07 11:59:55;;;;;;;;;;;;;;;;;;5071312;28;824;-66
2022/05/07 12:02:20;;;;;;;;;;;;;;;;;;5070425;28;880;-64
2022/05/07 12:04:46;;;;;;;;;;;;;;;;;;5070704;28;943;-64
2022/05/07 12:07:12;;;;;;;;;;;;;;;;;;5071492;28;859;-64
2022/05/07 12:09:37;;;;;;;;;;;;;;;;;;5070953;28;1894;-64
2022/05/07 12:12:03;;;;;;;;;;;;;;;;;;5070871;28;1221;-63
2022/05/07 12:14:28;;;;;;;;;;;;;;;;;;5071334;28;860;-63
2022/05/07 12:19:37;;;;;;;;;;;;;;;;;;5071270;28;639;-63
2022/05/07 12:30:15;;;;;;;;;;;;;;;;;;5071318;28;1989;-63
2022/05/07 12:32:43;;;;;;;;;;;;;;;;;;5071268;28;817;-63
2022/05/07 12:35:09;;;;;;;;;;;;;;;;;;5071567;28;821;-64
2022/05/07 12:37:35;;;;;;;;;;;;;;;;;;5073738;28;947;-63
2022/05/07 12:40:01;;;;;;;;;;;;;;;;;;5075622;28;900;-64
2022/05/07 12:42:26;;;;;;;;;;;;;;;;;;5075767;28;1057;-64
2022/05/07 12:44:51;;;;;;;;;;;;;;;;;;5073500;28;1012;-64
2022/05/07 12:47:19;;;;;;;;;;;;;;;;;;5075423;28;908;-63
2022/05/07 12:49:44;;;;;;;;;;;;;;;;;;5074528;28;1898;-64
2022/05/07 12:52:10;;;;;;;;;;;;;;;;;;5073335;28;833;-64
2022/05/07 12:54:35;;;;;;;;;;;;;;;;;;5074539;28;840;-64
2022/05/07 12:57:00;;;;;;;;;;;;;;;;;;5074952;28;935;-64
2022/05/07 12:59:26;;;;;;;;;;;;;;;;;;5074814;28;845;-63
2022/05/07 13:01:51;;;;;;;;;;;;;;;;;;5073565;28;1249;-64
2022/05/07 13:04:17;;;;;;;;;;;;;;;;;;5074792;28;829;-64
2022/05/07 13:06:43;;;;;;;;;;;;;;;;;;5073306;28;1249;-64
2022/05/07 13:09:09;;;;;;;;;;;;;;;;;;5075036;28;1973;-63
2022/05/07 13:11:34;;;;;;;;;;;;;;;;;;5073523;28;1105;-63
2022/05/07 13:14:00;;;;;;;;;;;;;;;;;;5075261;28;821;-63
2022/05/07 13:16:25;;;;;;;;;;;;;;;;;;5075449;28;801;-63
2022/05/07 13:18:50;;;;;;;;;;;;;;;;;;5074866;28;1011;-63
2022/05/07 13:21:15;;;;;;;;;;;;;;;;;;5073938;28;876;-63
2022/05/07 13:23:41;;;;;;;;;;;;;;;;;;5075266;28;908;-63
2022/05/07 13:26:07;;;;;;;;;;;;;;;;;;5075003;28;840;-63
2022/05/07 13:28:32;;;;;;;;;;;;;;;;;;5073275;28;1886;-63
2022/05/07 13:30:58;;;;;;;;;;;;;;;;;;5075063;28;821;-64
2022/05/07 13:33:24;;;;;;;;;;;;;;;;;;5075512;28;774;-63
2022/05/07 13:35:50;;;;;;;;;;;;;;;;;;5057090;28;1352;-63
2022/05/07 13:38:15;;;;;;;;;;;;;;;;;;5074636;28;980;-63
2022/05/07 13:40:41;;;;;;;;;;;;;;;;;;5073758;28;979;-63
2022/05/07 13:43:06;;;;;;;;;;;;;;;;;;5074600;28;1066;-64
2022/05/07 13:45:31;;;;;;;;;;;;;;;;;;5073844;28;891;-64
2022/05/07 13:47:57;;;;;;;;;;;;;;;;;;5072397;28;861;-64
2022/05/07 13:50:22;;;;;;;;;;;;;;;;;;5074272;28;1898;-64
2022/05/07 13:52:47;;;;;;;;;;;;;;;;;;5073821;28;995;-64
2022/05/07 13:55:13;;;;;;;;;;;;;;;;;;5073726;28;820;-64
2022/05/07 13:57:38;;;;;;;;;;;;;;;;;;5074054;28;844;-64
2022/05/07 14:00:04;;;;;;;;;;;;;;;;;;5074157;28;900;-63
2022/05/07 14:02:31;;;;;;;;;;;;;;;;;;5073782;28;841;-64
2022/05/07 14:04:58;;;;;;;;;;;;;;;;;;5073891;28;856;-65
2022/05/07 14:07:23;;;;;;;;;;;;;;;;;;5073705;28;988;-65
2022/05/07 14:09:48;;;;;;;;;;;;;;;;;;5072618;28;1906;-64
2022/05/07 14:12:17;;;;;;;;;;;;;;;;;;5073951;28;1060;-65
2022/05/07 14:14:43;;;;;;;;;;;;;;;;;;5073724;28;844;-65
2022/05/07 14:17:09;;;;;;;;;;;;;;;;;;5072507;28;742;-64
2022/05/07 14:19:34;;;;;;;;;;;;;;;;;;5072437;28;813;-65
2022/05/07 14:22:00;;;;;;;;;;;;;;;;;;5073057;28;917;-64
2022/05/07 14:24:26;;;;;;;;;;;;;;;;;;5073214;28;883;-65
2022/05/07 14:26:51;;;;;;;;;;;;;;;;;;5073253;28;833;-65
2022/05/07 14:29:16;;;;;;;;;;;;;;;;;;5072693;28;1975;-65
2022/05/07 14:31:42;;;;;;;;;;;;;;;;;;5073198;28;888;-65
2022/05/07 14:34:07;;;;;;;;;;;;;;;;;;5073349;28;809;-64
2022/05/07 14:36:32;;;;;;;;;;;;;;;;;;5054718;28;1166;-64
2022/05/07 14:38:58;;;;;;;;;;;;;;;;;;5072813;28;1255;-64
2022/05/07 14:41:23;;;;;;;;;;;;;;;;;;5072600;28;881;-65
2022/05/07 14:43:48;;;;;;;;;;;;;;;;;;5072404;28;1061;-65
2022/05/07 14:46:15;;;;;;;;;;;;;;;;;;5072728;28;762;-65
2022/05/07 14:48:40;;;;;;;;;;;;;;;;;;5072702;28;1961;-65
2022/05/07 14:51:05;;;;;;;;;;;;;;;;;;5072785;28;828;-64
2022/05/07 14:53:31;;;;;;;;;;;;;;;;;;5070756;28;1466;-65
2022/05/07 14:55:56;;;;;;;;;;;;;;;;;;5074666;28;1144;-64
2022/05/07 14:58:21;;;;;;;;;;;;;;;;;;5092593;28;852;-64
2022/05/07 15:00:46;;;;;;;;;;;;;;;;;;5091531;28;845;-64
2022/05/07 15:03:13;;;;;;;;;;;;;;;;;;5092714;28;808;-64
2022/05/07 15:05:38;;;;;;;;;;;;;;;;;;5092359;28;855;-64
2022/05/07 15:10:47;;;;;;;;;;;;;;;;;;5092252;28;1149;-64
2022/05/07 15:13:13;;;;;;;;;;;;;;;;;;5092708;28;987;-64
2022/05/07 15:15:38;;;;;;;;;;;;;;;;;;5090862;28;1268;-64
2022/05/07 15:18:03;;;;;;;;;;;;;;;;;;5091508;28;939;-64
2022/05/07 15:20:29;;;;;;;;;;;;;;;;;;5090406;28;1523;-64
2022/05/07 15:22:54;;;;;;;;;;;;;;;;;;5091146;28;1668;-64
2022/05/07 15:25:20;;;;;;;;;;;;;;;;;;5091141;28;1455;-65
2022/05/07 15:27:47;;;;;;;;;;;;;;;;;;5092307;28;840;-64
2022/05/07 15:30:13;;;;;;;;;;;;;;;;;;5090638;28;1906;-64
2022/05/07 15:38:06;;;;;;;;;;;;;;;;;;5091894;28;646;-64
2022/05/07 15:40:31;;;;;;;;;;;;;;;;;;5092108;28;860;-64
2022/05/07 15:42:57;;;;;;;;;;;;;;;;;;5074186;28;1164;-64
2022/05/07 15:45:23;;;;;;;;;;;;;;;;;;5090834;28;1341;-64
2022/05/07 15:47:48;;;;;;;;;;;;;;;;;;5091160;28;899;-64
2022/05/07 15:50:14;;;;;;;;;;;;;;;;;;5092271;28;1898;-64
2022/05/07 15:52:39;;;;;;;;;;;;;;;;;;5090534;28;1548;-64
2022/05/07 15:55:05;;;;;;;;;;;;;;;;;;5091257;28;908;-64
2022/05/07 15:57:30;;;;;;;;;;;;;;;;;;5091920;28;1267;-64
2022/05/07 15:59:55;;;;;;;;;;;;;;;;;;5090795;28;868;-64
2022/05/07 16:02:21;;;;;;;;;;;;;;;;;;5092224;28;1003;-64
2022/05/07 16:04:46;;;;;;;;;;;;;;;;;;5090846;28;919;-64
2022/05/07 16:07:11;;;;;;;;;;;;;;;;;;5091667;28;999;-64
2022/05/07 16:09:37;;;;;;;;;;;;;;;;;;5091744;28;1945;-64
2022/05/07 16:12:03;;;;;;;;;;;;;;;;;;5072635;28;1370;-65
2022/05/07 16:14:28;;;;;;;;;;;;;;;;;;5090124;28;1591;-63
2022/05/07 16:16:53;;;;;;;;;;;;;;;;;;5091506;28;817;-63
2022/05/07 16:19:19;;;;;;;;;;;;;;;;;;5092120;28;833;-65
2022/05/07 16:21:44;;;;;;;;;;;;;;;;;;5089655;28;1452;-65
2022/05/07 16:26:53;;;;;;;;;;;;;;;;;;5091651;28;713;-65
2022/05/07 16:29:19;;;;;;;;;;;;;;;;;;5091456;28;1905;-65
2022/05/07 16:31:44;;;;;;;;;;;;;;;;;;5091337;28;1026;-65
2022/05/07 16:34:09;;;;;;;;;;;;;;;;;;5091428;28;935;-65
2022/05/07 16:36:35;;;;;;;;;;;;;;;;;;5089596;28;1368;-65
2022/05/07 16:39:00;;;;;;;;;;;;;;;;;;5091404;28;922;-65
2022/05/07 16:41:25;;;;;;;;;;;;;;;;;;5090127;28;821;-65
2022/05/07 16:43:51;;;;;;;;;;;;;;;;;;5091688;28;825;-65
2022/05/07 16:46:16;;;;;;;;;;;;;;;;;;5091400;28;829;-65
2022/05/07 16:48:42;;;;;;;;;;;;;;;;;;5091359;28;1973;-65
2022/05/07 16:51:09;;;;;;;;;;;;;;;;;;5089831;28;1128;-65
2022/05/07 16:53:35;;;;;;;;;;;;;;;;;;5091000;28;841;-65
2022/05/07 16:56:00;;;;;;;;;;;;;;;;;;5090246;28;1289;-65
2022/05/07 16:58:25;;;;;;;;;;;;;;;;;;5089755;28;1151;-64
2022/05/07 17:00:50;;;;;;;;;;;;;;;;;;5089709;28;1026;-65
2022/05/07 17:03:16;;;;;;;;;;;;;;;;;;5089944;28;1370;-65
2022/05/07 17:05:41;;;;;;;;;;;;;;;;;;5090425;28;840;-65
2022/05/07 17:08:08;;;;;;;;;;;;;;;;;;5091163;28;1065;-65
2022/05/07 17:10:33;;;;;;;;;;;;;;;;;;5090641;28;1890;-65
2022/05/07 17:12:59;;;;;;;;;;;;;;;;;;5090812;28;1218;-65
2022/05/07 17:15:24;;;;;;;;;;;;;;;;;;5073429;28;1343;-65
2022/05/07 17:17:52;;;;;;;;;;;;;;;;;;5072963;28;1593;-65
2022/05/07 17:20:17;;;;;;;;;;;;;;;;;;5073341;28;1267;-65
2022/05/07 17:22:42;;;;;;;;;;;;;;;;;;5090466;28;888;-65
2022/05/07 17:25:08;;;;;;;;;;;;;;;;;;5093605;28;1167;-65
2022/05/07 17:27:33;;;;;;;;;;;;;;;;;;5094835;28;829;-65
2022/05/07 17:29:59;;;;;;;;;;;;;;;;;;5095382;28;1911;-65
2022/05/07 17:32:24;;;;;;;;;;;;;;;;;;5094401;28;856;-65
2022/05/07 17:34:50;;;;;;;;;;;;;;;;;;5093426;28;1210;-64
2022/05/07 17:37:15;;;;;;;;;;;;;;;;;;5093607;28;1197;-65
2022/05/07 17:39:40;;;;;;;;;;;;;;;;;;5094283;28;939;-65
2022/05/07 17:42:05;;;;;;;;;;;;;;;;;;5094475;28;845;-65
2022/05/07 17:44:31;;;;;;;;;;;;;;;;;;5094063;28;872;-64
2022/05/07 17:46:56;;;;;;;;;;;;;;;;;;5093044;28;758;-65
2022/05/07 17:49:23;;;;;;;;;;;;;;;;;;5094288;28;1902;-65
2022/05/07 17:51:50;;;;;;;;;;;;;;;;;;5075737;28;1279;-64
2022/05/07 17:54:16;;;;;;;;;;;;;;;;;;5092497;28;1159;-64
2022/05/07 17:56:42;;;;;;;;;;;;;;;;;;5093572;28;848;-64
2022/05/07 17:59:12;;;;;;;;;;;;;;;;;;5092361;28;1310;-64